sensor_id;sensor_type;location;lat;lon;timestamp;pressure;altitude;pressure_sealevel;temperature;humidity
51261;BME280;61705;46.228;24.812;2023-03-01T00:01:38;98369.84;;;0.88;95.70
51261;BME280;61705;46.228;24.812;2023-03-01T00:04:05;98375.06;;;0.88;95.76
51261;BME280;61705;46.228;24.812;2023-03-01T00:06:32;98372.47;;;0.87;95.68
51261;BME280;61705;46.228;24.812;2023-03-01T00:08:59;98368.16;;;0.97;95.97
51261;BME280;61705;46.228;24.812;2023-03-01T00:11:28;98372.47;;;0.94;95.97
51261;BME280;61705;46.228;24.812;2023-03-01T00:13:58;98372.44;;;0.79;95.80
51261;BME280;61705;46.228;24.812;2023-03-01T00:16:30;98374.19;;;0.83;96.04
51261;BME280;61705;46.228;24.812;2023-03-01T00:18:58;98375.03;;;0.81;96.21
51261;BME280;61705;46.228;24.812;2023-03-01T00:21:34;98370.69;;;0.81;96.27
51261;BME280;61705;46.228;24.812;2023-03-01T00:24:02;98375.03;;;0.84;96.44
51261;BME280;61705;46.228;24.812;2023-03-01T00:26:29;98371.63;;;0.92;96.43
51261;BME280;61705;46.228;24.812;2023-03-01T00:28:57;98380.31;;;1.01;96.36
51261;BME280;61705;46.228;24.812;2023-03-01T00:31:27;98375.09;;;0.93;96.08
51261;BME280;61705;46.228;24.812;2023-03-01T00:33:57;98370.75;;;0.95;96.36
51261;BME280;61705;46.228;24.812;2023-03-01T00:36:31;98369.00;;;0.89;96.17
51261;BME280;61705;46.228;24.812;2023-03-01T00:38:59;98369.88;;;0.91;96.34
51261;BME280;61705;46.228;24.812;2023-03-01T00:41:28;98364.63;;;0.84;96.37
51261;BME280;61705;46.228;24.812;2023-03-01T00:43:57;98368.13;;;0.86;96.39
51261;BME280;61705;46.228;24.812;2023-03-01T00:46:26;98366.38;;;0.86;96.43
51261;BME280;61705;46.228;24.812;2023-03-01T00:48:53;98363.81;;;0.92;96.48
51261;BME280;61705;46.228;24.812;2023-03-01T00:51:23;98369.88;;;0.99;96.44
51261;BME280;61705;46.228;24.812;2023-03-01T00:53:55;98368.97;;;0.85;96.54
51261;BME280;61705;46.228;24.812;2023-03-01T00:56:23;98360.31;;;0.83;96.58
51261;BME280;61705;46.228;24.812;2023-03-01T00:58:55;98355.97;;;0.83;96.73
51261;BME280;61705;46.228;24.812;2023-03-01T01:01:29;98356.84;;;0.87;96.49
51261;BME280;61705;46.228;24.812;2023-03-01T01:04:06;98358.59;;;0.86;96.50
51261;BME280;61705;46.228;24.812;2023-03-01T01:06:37;98354.22;;;0.84;96.71
51261;BME280;61705;46.228;24.812;2023-03-01T01:09:06;98351.66;;;0.87;97.14
51261;BME280;61705;46.228;24.812;2023-03-01T01:11:33;98343.84;;;0.87;96.99
51261;BME280;61705;46.228;24.812;2023-03-01T01:14:02;98350.75;;;0.85;97.26
51261;BME280;61705;46.228;24.812;2023-03-01T01:16:29;98353.38;;;0.86;97.26
51261;BME280;61705;46.228;24.812;2023-03-01T01:18:57;98346.44;;;0.84;97.33
51261;BME280;61705;46.228;24.812;2023-03-01T01:21:25;98346.44;;;0.87;97.42
51261;BME280;61705;46.228;24.812;2023-03-01T01:23:52;98350.78;;;0.89;97.50
51261;BME280;61705;46.228;24.812;2023-03-01T01:28:48;98336.91;;;0.95;97.39
51261;BME280;61705;46.228;24.812;2023-03-01T01:31:15;98334.34;;;0.98;97.33
51261;BME280;61705;46.228;24.812;2023-03-01T01:33:42;98342.16;;;1.06;97.31
51261;BME280;61705;46.228;24.812;2023-03-01T01:36:10;98336.97;;;1.03;97.24
51261;BME280;61705;46.228;24.812;2023-03-01T01:38:38;98343.03;;;1.05;97.29
51261;BME280;61705;46.228;24.812;2023-03-01T01:41:06;98337.81;;;0.97;97.26
51261;BME280;61705;46.228;24.812;2023-03-01T01:43:36;98335.19;;;0.99;97.13
51261;BME280;61705;46.228;24.812;2023-03-01T01:46:30;98328.25;;;0.98;97.31
51261;BME280;61705;46.228;24.812;2023-03-01T01:49:25;98334.38;;;1.03;97.21
51261;BME280;61705;46.228;24.812;2023-03-01T01:52:04;98335.22;;;1.09;97.13
51261;BME280;61705;46.228;24.812;2023-03-01T01:54:44;98332.59;;;1.02;97.27
51261;BME280;61705;46.228;24.812;2023-03-01T01:57:20;98329.16;;;1.04;96.91
51261;BME280;61705;46.228;24.812;2023-03-01T01:59:52;98324.84;;;1.11;96.87
51261;BME280;61705;46.228;24.812;2023-03-01T02:02:20;98323.94;;;1.09;96.78
51261;BME280;61705;46.228;24.812;2023-03-01T02:04:53;98329.13;;;1.06;96.32
51261;BME280;61705;46.228;24.812;2023-03-01T02:07:23;98320.50;;;1.07;95.92
51261;BME280;61705;46.228;24.812;2023-03-01T02:09:52;98322.22;;;1.08;95.92
51261;BME280;61705;46.228;24.812;2023-03-01T02:12:22;98319.63;;;1.12;95.78
51261;BME280;61705;46.228;24.812;2023-03-01T02:14:49;98317.88;;;1.08;95.51
51261;BME280;61705;46.228;24.812;2023-03-01T02:17:17;98320.50;;;1.13;95.58
51261;BME280;61705;46.228;24.812;2023-03-01T02:20:15;98317.00;;;1.02;95.33
51261;BME280;61705;46.228;24.812;2023-03-01T02:22:45;98312.69;;;1.14;95.40
51261;BME280;61705;46.228;24.812;2023-03-01T02:28:03;98311.81;;;1.06;95.27
51261;BME280;61705;46.228;24.812;2023-03-01T02:30:35;98311.81;;;1.09;95.27
51261;BME280;61705;46.228;24.812;2023-03-01T02:33:03;98315.31;;;1.13;95.09
51261;BME280;61705;46.228;24.812;2023-03-01T02:35:33;98313.53;;;1.09;95.00
51261;BME280;61705;46.228;24.812;2023-03-01T02:38:02;98317.88;;;1.08;95.09
51261;BME280;61705;46.228;24.812;2023-03-01T02:40:30;98316.16;;;1.18;94.99
51261;BME280;61705;46.228;24.812;2023-03-01T02:43:01;98309.22;;;1.18;94.75
51261;BME280;61705;46.228;24.812;2023-03-01T02:45:30;98306.63;;;1.14;94.81
51261;BME280;61705;46.228;24.812;2023-03-01T02:47:57;98303.19;;;1.24;94.68
51261;BME280;61705;46.228;24.812;2023-03-01T02:55:55;98304.03;;;1.20;94.20
51261;BME280;61705;46.228;24.812;2023-03-01T02:58:22;98300.56;;;1.23;94.21
51261;BME280;61705;46.228;24.812;2023-03-01T03:00:52;98296.25;;;1.28;93.83
51261;BME280;61705;46.228;24.812;2023-03-01T03:03:20;98293.63;;;1.23;93.90
51261;BME280;61705;46.228;24.812;2023-03-01T03:05:54;98294.47;;;1.22;93.58
51261;BME280;61705;46.228;24.812;2023-03-01T03:08:21;98285.81;;;1.20;93.77
51261;BME280;61705;46.228;24.812;2023-03-01T03:10:50;98285.81;;;1.20;93.78
51261;BME280;61705;46.228;24.812;2023-03-01T03:13:17;98280.59;;;1.22;93.75
51261;BME280;61705;46.228;24.812;2023-03-01T03:15:45;98299.69;;;1.19;93.76
51261;BME280;61705;46.228;24.812;2023-03-01T03:18:16;98297.06;;;1.19;94.02
51261;BME280;61705;46.228;24.812;2023-03-01T03:20:43;98291.88;;;1.17;93.73
51261;BME280;61705;46.228;24.812;2023-03-01T03:23:12;98297.94;;;1.23;93.79
51261;BME280;61705;46.228;24.812;2023-03-01T03:25:38;98299.69;;;1.19;93.74
51261;BME280;61705;46.228;24.812;2023-03-01T03:28:06;98294.50;;;1.21;94.05
51261;BME280;61705;46.228;24.812;2023-03-01T03:30:38;98287.53;;;1.21;94.07
51261;BME280;61705;46.228;24.812;2023-03-01T03:33:14;98279.72;;;1.19;94.05
51261;BME280;61705;46.228;24.812;2023-03-01T03:35:45;98285.81;;;1.20;94.03
51261;BME280;61705;46.228;24.812;2023-03-01T03:38:15;98273.66;;;1.21;94.24
51261;BME280;61705;46.228;24.812;2023-03-01T03:40:47;98271.91;;;1.23;94.30
51261;BME280;61705;46.228;24.812;2023-03-01T03:43:18;98267.59;;;1.23;94.42
51261;BME280;61705;46.228;24.812;2023-03-01T03:45:46;98275.41;;;1.28;94.33
51261;BME280;61705;46.228;24.812;2023-03-01T03:48:17;98273.66;;;1.28;94.35
51261;BME280;61705;46.228;24.812;2023-03-01T03:50:52;98258.91;;;1.19;94.27
51261;BME280;61705;46.228;24.812;2023-03-01T03:53:23;98263.25;;;1.25;94.49
51261;BME280;61705;46.228;24.812;2023-03-01T03:55:51;98265.88;;;1.24;94.55
51261;BME280;61705;46.228;24.812;2023-03-01T03:58:19;98266.72;;;1.26;94.69
51261;BME280;61705;46.228;24.812;2023-03-01T04:00:56;98269.31;;;1.26;94.77
51261;BME280;61705;46.228;24.812;2023-03-01T04:03:25;98263.25;;;1.25;94.89
51261;BME280;61705;46.228;24.812;2023-03-01T04:05:52;98268.47;;;1.27;94.96
51261;BME280;61705;46.228;24.812;2023-03-01T04:08:21;98266.72;;;1.23;95.12
51261;BME280;61705;46.228;24.812;2023-03-01T04:10:50;98264.13;;;1.29;95.21
51261;BME280;61705;46.228;24.812;2023-03-01T04:13:20;98267.63;;;1.34;95.31
51261;BME280;61705;46.228;24.812;2023-03-01T04:15:54;98272.81;;;1.37;95.37
51261;BME280;61705;46.228;24.812;2023-03-01T04:18:24;98265.00;;;1.37;95.25
51261;BME280;61705;46.228;24.812;2023-03-01T04:21:04;98273.69;;;1.37;95.43
51261;BME280;61705;46.228;24.812;2023-03-01T04:23:30;98270.19;;;1.35;95.42
51261;BME280;61705;46.228;24.812;2023-03-01T04:25:58;98278.00;;;1.35;95.21
51261;BME280;61705;46.228;24.812;2023-03-01T04:28:39;98266.72;;;1.33;95.18
51261;BME280;61705;46.228;24.812;2023-03-01T04:31:14;98270.22;;;1.34;95.08
51261;BME280;61705;46.228;24.812;2023-03-01T04:33:45;98272.78;;;1.32;95.07
51261;BME280;61705;46.228;24.812;2023-03-01T04:36:14;98276.28;;;1.39;95.24
51261;BME280;61705;46.228;24.812;2023-03-01T04:38:42;98270.22;;;1.41;94.96
51261;BME280;61705;46.228;24.812;2023-03-01T04:41:18;98271.06;;;1.36;95.01
51261;BME280;61705;46.228;24.812;2023-03-01T04:43:45;98275.41;;;1.41;94.98
51261;BME280;61705;46.228;24.812;2023-03-01T04:46:15;98276.28;;;1.40;95.00
51261;BME280;61705;46.228;24.812;2023-03-01T04:48:46;98276.28;;;1.39;95.03
51261;BME280;61705;46.228;24.812;2023-03-01T04:51:14;98277.16;;;1.38;94.84
51261;BME280;61705;46.228;24.812;2023-03-01T04:53:45;98280.63;;;1.41;95.12
51261;BME280;61705;46.228;24.812;2023-03-01T04:56:12;98281.50;;;1.42;95.22
51261;BME280;61705;46.228;24.812;2023-03-01T04:58:44;98282.34;;;1.46;94.78
51261;BME280;61705;46.228;24.812;2023-03-01T05:01:20;98279.75;;;1.42;94.75
51261;BME280;61705;46.228;24.812;2023-03-01T05:03:51;98278.88;;;1.42;94.78
51261;BME280;61705;46.228;24.812;2023-03-01T05:06:19;98281.50;;;1.48;94.54
51261;BME280;61705;46.228;24.812;2023-03-01T05:08:46;98289.28;;;1.43;94.58
51261;BME280;61705;46.228;24.812;2023-03-01T05:11:13;98291.03;;;1.43;94.76
51261;BME280;61705;46.228;24.812;2023-03-01T05:13:40;98284.94;;;1.50;94.59
51261;BME280;61705;46.228;24.812;2023-03-01T05:16:10;98288.44;;;1.49;94.82
51261;BME280;61705;46.228;24.812;2023-03-01T05:18:38;98278.03;;;1.51;94.78
51261;BME280;61705;46.228;24.812;2023-03-01T05:21:08;98284.97;;;1.46;94.83
51261;BME280;61705;46.228;24.812;2023-03-01T05:23:35;98295.38;;;1.49;94.90
51261;BME280;61705;46.228;24.812;2023-03-01T05:26:03;98285.84;;;1.52;94.89
51261;BME280;61705;46.228;24.812;2023-03-01T05:28:38;98290.19;;;1.55;94.85
51261;BME280;61705;46.228;24.812;2023-03-01T05:31:07;98291.94;;;1.57;94.85
51261;BME280;61705;46.228;24.812;2023-03-01T05:33:37;98294.53;;;1.59;95.00
51261;BME280;61705;46.228;24.812;2023-03-01T05:36:05;98299.72;;;1.60;95.05
51261;BME280;61705;46.228;24.812;2023-03-01T05:38:32;98300.56;;;1.64;94.87
51261;BME280;61705;46.228;24.812;2023-03-01T05:41:02;98299.72;;;1.79;94.93
51261;BME280;61705;46.228;24.812;2023-03-01T05:43:31;98301.44;;;1.84;94.66
51261;BME280;61705;46.228;24.812;2023-03-01T05:46:00;98298.84;;;1.87;94.31
51261;BME280;61705;46.228;24.812;2023-03-01T05:48:27;98311.88;;;1.94;94.27
51261;BME280;61705;46.228;24.812;2023-03-01T05:50:54;98310.13;;;1.94;94.29
51261;BME280;61705;46.228;24.812;2023-03-01T05:53:24;98311.84;;;1.98;94.19
51261;BME280;61705;46.228;24.812;2023-03-01T05:55:50;98313.63;;;1.99;94.15
51261;BME280;61705;46.228;24.812;2023-03-01T05:58:20;98315.34;;;2.06;94.05
51261;BME280;61705;46.228;24.812;2023-03-01T06:00:48;98311.84;;;1.98;94.25
51261;BME280;61705;46.228;24.812;2023-03-01T06:03:16;98322.28;;;2.04;94.01
51261;BME280;61705;46.228;24.812;2023-03-01T06:05:44;98318.81;;;1.99;93.84
51261;BME280;61705;46.228;24.812;2023-03-01T06:08:11;98316.19;;;2.01;93.76
51261;BME280;61705;46.228;24.812;2023-03-01T06:10:38;98316.22;;;1.92;93.73
51261;BME280;61705;46.228;24.812;2023-03-01T06:13:05;98311.84;;;2.04;93.72
51261;BME280;61705;46.228;24.812;2023-03-01T06:15:32;98314.47;;;2.04;93.70
51261;BME280;61705;46.228;24.812;2023-03-01T06:17:59;98314.47;;;2.12;93.66
51261;BME280;61705;46.228;24.812;2023-03-01T06:20:28;98317.06;;;2.13;93.38
51261;BME280;61705;46.228;24.812;2023-03-01T06:22:56;98312.72;;;2.12;93.45
51261;BME280;61705;46.228;24.812;2023-03-01T06:25:25;98314.47;;;2.12;93.36
51261;BME280;61705;46.228;24.812;2023-03-01T06:27:52;98308.34;;;2.14;93.29
51261;BME280;61705;46.228;24.812;2023-03-01T06:30:20;98316.19;;;2.24;93.44
51261;BME280;61705;46.228;24.812;2023-03-01T06:32:48;98310.94;;;2.28;93.33
51261;BME280;61705;46.228;24.812;2023-03-01T06:35:16;98318.78;;;2.24;93.17
51261;BME280;61705;46.228;24.812;2023-03-01T06:37:49;98319.66;;;2.24;93.36
51261;BME280;61705;46.228;24.812;2023-03-01T06:40:16;98321.38;;;2.25;93.30
51261;BME280;61705;46.228;24.812;2023-03-01T06:42:47;98317.91;;;2.29;93.35
51261;BME280;61705;46.228;24.812;2023-03-01T06:45:16;98314.41;;;2.35;93.34
51261;BME280;61705;46.228;24.812;2023-03-01T06:47:43;98317.00;;;2.44;93.18
51261;BME280;61705;46.228;24.812;2023-03-01T06:50:10;98317.84;;;2.51;93.19
51261;BME280;61705;46.228;24.812;2023-03-01T06:52:38;98320.41;;;2.58;92.83
51261;BME280;61705;46.228;24.812;2023-03-01T06:55:05;98316.06;;;2.56;92.57
51261;BME280;61705;46.228;24.812;2023-03-01T06:57:32;98316.97;;;2.56;92.25
51261;BME280;61705;46.228;24.812;2023-03-01T06:59:59;98315.22;;;2.57;92.09
51261;BME280;61705;46.228;24.812;2023-03-01T07:02:26;98320.38;;;2.66;92.02
51261;BME280;61705;46.228;24.812;2023-03-01T07:04:52;98309.97;;;2.65;91.79
51261;BME280;61705;46.228;24.812;2023-03-01T07:07:23;98323.91;;;2.64;91.68
51261;BME280;61705;46.228;24.812;2023-03-01T07:09:50;98328.22;;;2.71;91.48
51261;BME280;61705;46.228;24.812;2023-03-01T07:12:19;98326.47;;;2.71;91.26
51261;BME280;61705;46.228;24.812;2023-03-01T07:14:46;98324.72;;;2.78;91.10
51261;BME280;61705;46.228;24.812;2023-03-01T07:17:15;98326.44;;;2.80;91.08
51261;BME280;61705;46.228;24.812;2023-03-01T07:19:41;98322.94;;;2.81;90.94
51261;BME280;61705;46.228;24.812;2023-03-01T07:22:08;98320.31;;;2.91;90.61
51261;BME280;61705;46.228;24.812;2023-03-01T07:24:36;98319.41;;;2.96;90.30
51261;BME280;61705;46.228;24.812;2023-03-01T07:27:06;98317.69;;;2.91;90.08
51261;BME280;61705;46.228;24.812;2023-03-01T07:29:33;98321.16;;;2.94;89.79
51261;BME280;61705;46.228;24.812;2023-03-01T07:32:06;98333.28;;;3.06;89.94
51261;BME280;61705;46.228;24.812;2023-03-01T07:34:33;98323.66;;;3.11;89.57
51261;BME280;61705;46.228;24.812;2023-03-01T07:37:02;98319.31;;;3.13;89.41
51261;BME280;61705;46.228;24.812;2023-03-01T07:39:28;98317.53;;;3.20;89.29
51261;BME280;61705;46.228;24.812;2023-03-01T07:41:56;98320.09;;;3.29;89.07
51261;BME280;61705;46.228;24.812;2023-03-01T07:44:25;98323.56;;;3.32;88.88
51261;BME280;61705;46.228;24.812;2023-03-01T07:47:00;98316.56;;;3.39;88.54
51261;BME280;61705;46.228;24.812;2023-03-01T07:49:27;98320.09;;;3.32;88.01
51261;BME280;61705;46.228;24.812;2023-03-01T07:51:53;98313.06;;;3.39;87.58
51261;BME280;61705;46.228;24.812;2023-03-01T07:54:20;98307.81;;;3.42;87.51
51261;BME280;61705;46.228;24.812;2023-03-01T07:56:47;98306.91;;;3.49;87.40
51261;BME280;61705;46.228;24.812;2023-03-01T07:59:14;98312.03;;;3.61;87.61
51261;BME280;61705;46.228;24.812;2023-03-01T08:01:41;98305.81;;;3.77;87.23
51261;BME280;61705;46.228;24.812;2023-03-01T08:04:08;98305.72;;;3.88;86.81
51261;BME280;61705;46.228;24.812;2023-03-01T08:06:37;98300.41;;;3.96;86.91
51261;BME280;61705;46.228;24.812;2023-03-01T08:09:13;98302.06;;;4.08;86.65
51261;BME280;61705;46.228;24.812;2023-03-01T08:11:39;98303.75;;;4.10;86.25
51261;BME280;61705;46.228;24.812;2023-03-01T08:14:06;98304.69;;;4.04;85.71
51261;BME280;61705;46.228;24.812;2023-03-01T08:16:36;98294.13;;;4.15;85.34
51261;BME280;61705;46.228;24.812;2023-03-01T08:19:10;98299.34;;;4.18;84.88
51261;BME280;61705;46.228;24.812;2023-03-01T08:21:40;98301.91;;;4.21;84.84
51261;BME280;61705;46.228;24.812;2023-03-01T08:24:07;98296.66;;;4.23;84.51
51261;BME280;61705;46.228;24.812;2023-03-01T08:26:34;98296.56;;;4.31;84.37
51261;BME280;61705;46.228;24.812;2023-03-01T08:29:01;98304.41;;;4.35;84.18
51261;BME280;61705;46.228;24.812;2023-03-01T08:31:36;98304.28;;;4.46;84.14
51261;BME280;61705;46.228;24.812;2023-03-01T08:34:07;98299.78;;;4.57;83.89
51261;BME280;61705;46.228;24.812;2023-03-01T08:36:46;98291.78;;;4.68;83.77
51261;BME280;61705;46.228;24.812;2023-03-01T08:39:20;98291.72;;;4.75;83.51
51261;BME280;61705;46.228;24.812;2023-03-01T08:41:52;98295.06;;;4.87;83.24
51261;BME280;61705;46.228;24.812;2023-03-01T08:44:19;98291.44;;;4.97;83.09
51261;BME280;61705;46.228;24.812;2023-03-01T08:46:47;98282.50;;;5.12;82.90
51261;BME280;61705;46.228;24.812;2023-03-01T08:49:32;98272.69;;;5.28;82.69
51261;BME280;61705;46.228;24.812;2023-03-01T08:52:03;98271.78;;;5.30;82.38
51261;BME280;61705;46.228;24.812;2023-03-01T08:54:33;98255.25;;;5.25;81.49
51261;BME280;61705;46.228;24.812;2023-03-01T08:57:02;98261.41;;;5.19;81.32
51261;BME280;61705;46.228;24.812;2023-03-01T08:59:29;98257.78;;;5.31;81.41
51261;BME280;61705;46.228;24.812;2023-03-01T09:01:56;98245.53;;;5.32;81.31
51261;BME280;61705;46.228;24.812;2023-03-01T09:04:23;98256.78;;;5.38;81.21
51261;BME280;61705;46.228;24.812;2023-03-01T09:06:55;98258.69;;;5.29;80.88
51261;BME280;61705;46.228;24.812;2023-03-01T09:09:21;98254.19;;;5.37;80.91
51261;BME280;61705;46.228;24.812;2023-03-01T09:11:48;98254.19;;;5.37;81.42
51261;BME280;61705;46.228;24.812;2023-03-01T09:14:19;98249.91;;;5.30;81.71
51261;BME280;61705;46.228;24.812;2023-03-01T09:16:46;98255.38;;;5.16;82.03
51261;BME280;61705;46.228;24.812;2023-03-01T09:19:13;98246.81;;;5.05;82.00
51261;BME280;61705;46.228;24.812;2023-03-01T09:21:40;98240.81;;;4.96;82.07
51261;BME280;61705;46.228;24.812;2023-03-01T09:24:11;98247.91;;;4.90;82.39
51261;BME280;61705;46.228;24.812;2023-03-01T09:26:39;98244.47;;;4.85;82.59
51261;BME280;61705;46.228;24.812;2023-03-01T09:29:05;98241.88;;;4.83;82.40
51261;BME280;61705;46.228;24.812;2023-03-01T09:31:32;98240.00;;;4.93;82.36
51261;BME280;61705;46.228;24.812;2023-03-01T09:33:58;98232.09;;;4.96;82.30
51261;BME280;61705;46.228;24.812;2023-03-01T09:36:25;98233.75;;;5.02;82.04
51261;BME280;61705;46.228;24.812;2023-03-01T09:38:52;98220.59;;;5.06;81.84
51261;BME280;61705;46.228;24.812;2023-03-01T09:41:36;98230.03;;;5.18;81.76
51261;BME280;61705;46.228;24.812;2023-03-01T09:46:40;98222.50;;;5.52;80.95
51261;BME280;61705;46.228;24.812;2023-03-01T09:49:15;98220.44;;;5.71;80.35
51261;BME280;61705;46.228;24.812;2023-03-01T09:51:48;98216.69;;;5.84;79.96
51261;BME280;61705;46.228;24.812;2023-03-01T09:54:20;98213.72;;;6.06;79.73
51261;BME280;61705;46.228;24.812;2023-03-01T09:56:51;98218.03;;;6.08;78.76
51261;BME280;61705;46.228;24.812;2023-03-01T09:59:23;98200.41;;;6.15;78.18
51261;BME280;61705;46.228;24.812;2023-03-01T10:09:58;98191.56;;;6.62;74.54
51261;BME280;61705;46.228;24.812;2023-03-01T10:12:33;98184.41;;;6.71;74.44
51261;BME280;61705;46.228;24.812;2023-03-01T10:20:18;98174.31;;;6.91;72.90
51261;BME280;61705;46.228;24.812;2023-03-01T10:22:48;98179.06;;;7.12;72.72
51261;BME280;61705;46.228;24.812;2023-03-01T10:30:44;98164.97;;;7.51;70.52
51261;BME280;61705;46.228;24.812;2023-03-01T10:33:22;98158.72;;;7.56;70.52
51261;BME280;61705;46.228;24.812;2023-03-01T10:35:51;98158.28;;;7.72;69.49
51261;BME280;61705;46.228;24.812;2023-03-01T10:38:19;98157.50;;;7.70;69.83
51261;BME280;61705;46.228;24.812;2023-03-01T10:40:59;98143.63;;;7.96;68.80
51261;BME280;61705;46.228;24.812;2023-03-01T10:43:49;98140.91;;;7.99;68.70
51261;BME280;61705;46.228;24.812;2023-03-01T10:46:24;98130.53;;;7.94;68.37
51261;BME280;61705;46.228;24.812;2023-03-01T10:49:05;98122.25;;;8.39;68.42
51261;BME280;61705;46.228;24.812;2023-03-01T10:51:32;98122.88;;;8.47;66.64
51261;BME280;61705;46.228;24.812;2023-03-01T10:53:59;98114.50;;;8.63;66.01
51261;BME280;61705;46.228;24.812;2023-03-01T10:56:27;98113.13;;;8.79;64.95
51261;BME280;61705;46.228;24.812;2023-03-01T10:58:59;98109.72;;;8.75;65.01
51261;BME280;61705;46.228;24.812;2023-03-01T11:01:28;98109.06;;;8.95;64.69
51261;BME280;61705;46.228;24.812;2023-03-01T11:04:30;98108.03;;;9.01;64.66
51261;BME280;61705;46.228;24.812;2023-03-01T11:06:57;98093.63;;;9.11;64.75
51261;BME280;61705;46.228;24.812;2023-03-01T11:09:24;98094.50;;;9.12;63.79
51261;BME280;61705;46.228;24.812;2023-03-01T11:11:54;98085.56;;;9.16;63.73
51261;BME280;61705;46.228;24.812;2023-03-01T11:14:23;98085.78;;;9.10;64.06
51261;BME280;61705;46.228;24.812;2023-03-01T11:17:12;98082.34;;;9.08;64.38
51261;BME280;61705;46.228;24.812;2023-03-01T11:19:40;98084.56;;;9.20;64.63
51261;BME280;61705;46.228;24.812;2023-03-01T11:22:19;98086.13;;;9.25;64.40
51261;BME280;61705;46.228;24.812;2023-03-01T11:24:49;98086.09;;;9.27;63.99
51261;BME280;61705;46.228;24.812;2023-03-01T11:27:28;98081.22;;;9.15;64.12
51261;BME280;61705;46.228;24.812;2023-03-01T11:30:07;98079.00;;;9.02;64.45
51261;BME280;61705;46.228;24.812;2023-03-01T11:32:40;98078.91;;;8.77;64.69
51261;BME280;61705;46.228;24.812;2023-03-01T11:35:15;98080.22;;;8.92;65.13
51261;BME280;61705;46.228;24.812;2023-03-01T11:51:37;98071.94;;;8.76;66.54
51261;BME280;61705;46.228;24.812;2023-03-01T11:54:06;98071.53;;;8.61;66.94
51261;BME280;61705;46.228;24.812;2023-03-01T11:57:20;98069.91;;;8.57;67.21
51261;BME280;61705;46.228;24.812;2023-03-01T12:09:31;98057.31;;;8.38;67.21
51261;BME280;61705;46.228;24.812;2023-03-01T12:20:17;98044.25;;;8.34;67.43
51261;BME280;61705;46.228;24.812;2023-03-01T12:33:22;98032.38;;;8.50;67.87
51261;BME280;61705;46.228;24.812;2023-03-01T12:43:55;98036.66;;;8.24;67.50
51261;BME280;61705;46.228;24.812;2023-03-01T12:46:49;98048.84;;;8.27;67.56
51261;BME280;61705;46.228;24.812;2023-03-01T12:49:13;98033.69;;;8.35;67.46
51261;BME280;61705;46.228;24.812;2023-03-01T12:51:44;98033.56;;;8.40;67.58
51261;BME280;61705;46.228;24.812;2023-03-01T12:54:16;98031.00;;;8.38;67.58
51261;BME280;61705;46.228;24.812;2023-03-01T12:56:43;98027.56;;;8.35;67.95
51261;BME280;61705;46.228;24.812;2023-03-01T13:07:15;98018.25;;;8.52;67.36
51261;BME280;61705;46.228;24.812;2023-03-01T13:15:24;98020.13;;;8.49;67.12
51261;BME280;61705;46.228;24.812;2023-03-01T13:17:57;98019.19;;;8.50;66.93
51261;BME280;61705;46.228;24.812;2023-03-01T13:30:58;98014.22;;;8.41;66.87
51261;BME280;61705;46.228;24.812;2023-03-01T13:35:57;98004.34;;;8.47;66.46
51261;BME280;61705;46.228;24.812;2023-03-01T13:41:09;97987.56;;;8.51;66.10
51261;BME280;61705;46.228;24.812;2023-03-01T13:43:37;97998.94;;;8.52;66.21
51261;BME280;61705;46.228;24.812;2023-03-01T13:46:16;97990.97;;;8.53;66.29
51261;BME280;61705;46.228;24.812;2023-03-01T13:48:45;97992.59;;;8.58;66.32
51261;BME280;61705;46.228;24.812;2023-03-01T13:51:20;97987.41;;;8.56;66.33
51261;BME280;61705;46.228;24.812;2023-03-01T13:53:49;97985.63;;;8.57;66.22
51261;BME280;61705;46.228;24.812;2023-03-01T13:56:24;97986.66;;;8.51;66.57
51261;BME280;61705;46.228;24.812;2023-03-01T13:58:53;97986.16;;;8.40;66.91
51261;BME280;61705;46.228;24.812;2023-03-01T14:01:21;97984.50;;;8.36;67.01
51261;BME280;61705;46.228;24.812;2023-03-01T14:03:52;97976.84;;;8.28;67.32
51261;BME280;61705;46.228;24.812;2023-03-01T14:06:23;97988.28;;;8.27;67.44
51261;BME280;61705;46.228;24.812;2023-03-01T14:08:51;97985.53;;;8.31;67.50
51261;BME280;61705;46.228;24.812;2023-03-01T14:19:27;97980.09;;;8.38;66.80
51261;BME280;61705;46.228;24.812;2023-03-01T14:27:03;97980.19;;;8.33;66.49
51261;BME280;61705;46.228;24.812;2023-03-01T14:29:36;97981.28;;;8.27;66.71
51261;BME280;61705;46.228;24.812;2023-03-01T14:35:59;97983.91;;;8.27;66.73
51261;BME280;61705;46.228;24.812;2023-03-01T14:39:49;97980.72;;;8.16;66.63
51261;BME280;61705;46.228;24.812;2023-03-01T14:42:16;97984.19;;;8.18;66.72
51261;BME280;61705;46.228;24.812;2023-03-01T14:53:38;97983.41;;;7.85;66.36
51261;BME280;61705;46.228;24.812;2023-03-01T14:56:16;97974.66;;;7.84;66.94
51261;BME280;61705;46.228;24.812;2023-03-01T14:58:46;97970.34;;;7.82;67.36
51261;BME280;61705;46.228;24.812;2023-03-01T15:01:17;97970.34;;;7.82;67.69
51261;BME280;61705;46.228;24.812;2023-03-01T15:03:48;97964.09;;;7.86;67.75
51261;BME280;61705;46.228;24.812;2023-03-01T15:06:20;97964.97;;;7.87;68.01
51261;BME280;61705;46.228;24.812;2023-03-01T15:08:52;97964.09;;;7.86;68.16
51261;BME280;61705;46.228;24.812;2023-03-01T15:11:27;97968.56;;;7.82;68.03
51261;BME280;61705;46.228;24.812;2023-03-01T15:13:54;97966.00;;;7.81;67.85
51261;BME280;61705;46.228;24.812;2023-03-01T15:16:26;97970.50;;;7.77;67.87
51261;BME280;61705;46.228;24.812;2023-03-01T15:18:58;97968.81;;;7.75;68.05
51261;BME280;61705;46.228;24.812;2023-03-01T15:21:35;97967.81;;;7.79;67.99
51261;BME280;61705;46.228;24.812;2023-03-01T15:24:06;97974.06;;;7.75;68.25
51261;BME280;61705;46.228;24.812;2023-03-01T15:26:42;97972.44;;;7.71;68.54
51261;BME280;61705;46.228;24.812;2023-03-01T15:29:19;97974.34;;;7.66;68.46
51261;BME280;61705;46.228;24.812;2023-03-01T15:34:44;97968.28;;;7.64;68.58
51261;BME280;61705;46.228;24.812;2023-03-01T15:43:39;97968.53;;;7.54;69.91
51261;BME280;61705;46.228;24.812;2023-03-01T15:48:45;97964.97;;;7.55;70.51